createdAt,value
2019-05-13T00:01:24.496Z,23.50
2019-05-13T00:03:55.082Z,23.40
2019-05-13T00:06:25.823Z,23.50
2019-05-13T00:08:56.232Z,23.50
2019-05-13T00:11:26.718Z,23.50
2019-05-13T00:13:57.190Z,23.50
2019-05-13T00:16:27.603Z,23.50
2019-05-13T00:18:58.021Z,23.50
2019-05-13T00:21:28.455Z,23.50
2019-05-13T00:23:58.858Z,23.50
2019-05-13T00:26:29.286Z,23.50
2019-05-13T00:29:00.164Z,23.50
2019-05-13T00:31:30.563Z,23.50
2019-05-13T00:34:03.467Z,23.50
2019-05-13T00:36:33.861Z,23.50
2019-05-13T00:39:06.101Z,23.50
2019-05-13T00:41:37.103Z,23.50
2019-05-13T00:44:07.668Z,23.50
2019-05-13T00:46:38.067Z,23.50
2019-05-13T00:49:08.845Z,23.50
2019-05-13T00:51:39.628Z,23.60
2019-05-13T00:54:10.155Z,23.60
2019-05-13T00:56:40.739Z,23.60
2019-05-13T00:59:14.002Z,23.60
2019-05-13T01:01:44.109Z,23.60
2019-05-13T01:04:15.051Z,23.60
2019-05-13T01:06:45.889Z,23.60
2019-05-13T01:09:16.488Z,23.60
2019-05-13T01:11:47.163Z,23.60
2019-05-13T01:14:17.589Z,23.60
2019-05-13T01:16:48.003Z,23.60
2019-05-13T01:19:18.684Z,23.60
2019-05-13T01:21:49.109Z,23.60
2019-05-13T01:24:19.632Z,23.60
2019-05-13T01:26:50.518Z,23.60
2019-05-13T01:29:20.911Z,23.60
2019-05-13T01:31:53.654Z,23.60
2019-05-13T01:34:23.735Z,23.60
2019-05-13T01:36:54.796Z,23.60
2019-05-13T01:39:25.225Z,23.60
2019-05-13T01:41:55.669Z,23.60
2019-05-13T01:44:27.673Z,23.60
2019-05-13T01:46:58.455Z,23.60
2019-05-13T01:49:28.877Z,23.60
2019-05-13T01:51:59.280Z,23.60
2019-05-13T01:54:29.737Z,23.60
2019-05-13T01:57:00.588Z,23.60
2019-05-13T01:59:31.013Z,23.60
2019-05-13T02:02:03.262Z,23.60
2019-05-13T02:04:33.610Z,23.60
2019-05-13T02:07:04.476Z,23.60
2019-05-13T02:09:35.701Z,23.60
2019-05-13T02:12:06.134Z,23.60
2019-05-13T02:14:36.532Z,23.50
2019-05-13T02:17:07.029Z,23.50
2019-05-13T02:19:37.497Z,23.50
2019-05-13T02:22:07.897Z,23.50
2019-05-13T02:24:38.969Z,23.50
2019-05-13T02:27:09.813Z,23.50
2019-05-13T02:29:40.311Z,23.50
2019-05-13T02:32:13.797Z,23.50
2019-05-13T02:34:44.739Z,23.50
2019-05-13T02:37:15.276Z,23.50
2019-05-13T02:39:45.687Z,23.50
2019-05-13T02:42:16.246Z,23.50
2019-05-13T02:44:46.693Z,23.50
2019-05-13T02:47:17.115Z,23.50
2019-05-13T02:49:48.794Z,23.50
2019-05-13T02:52:22.224Z,23.50
2019-05-13T02:54:52.805Z,23.50
2019-05-13T02:57:23.447Z,23.50
2019-05-13T02:59:53.966Z,23.50
2019-05-13T03:02:24.395Z,23.40
2019-05-13T03:04:54.811Z,23.40
2019-05-13T03:07:25.408Z,23.40
2019-05-13T03:09:57.227Z,23.40
2019-05-13T03:12:27.944Z,23.40
2019-05-13T03:15:02.418Z,23.40
2019-05-13T03:17:32.845Z,23.40
2019-05-13T03:20:04.289Z,23.40
2019-05-13T03:22:34.945Z,23.40
2019-05-13T03:25:06.886Z,23.40
2019-05-13T03:27:37.304Z,23.40
2019-05-13T03:30:07.801Z,23.30
2019-05-13T03:32:50.339Z,23.30
2019-05-13T03:35:16.258Z,23.30
2019-05-13T03:37:44.362Z,23.30
2019-05-13T03:40:15.038Z,23.30
2019-05-13T03:42:46.338Z,23.30
2019-05-13T03:45:16.789Z,23.30
2019-05-13T03:47:52.551Z,23.20
2019-05-13T03:50:22.912Z,23.20
2019-05-13T03:52:53.807Z,23.20
2019-05-13T03:55:25.335Z,23.20
2019-05-13T03:57:55.790Z,23.20
2019-05-13T04:00:26.282Z,23.20
2019-05-13T04:02:57.134Z,23.20
2019-05-13T04:05:27.861Z,23.10
2019-05-13T04:07:58.833Z,23.10
2019-05-13T04:10:33.132Z,23.10
2019-05-13T04:13:03.808Z,23.10
2019-05-13T04:15:35.139Z,23.10
2019-05-13T04:18:05.625Z,23.10
2019-05-13T04:20:36.067Z,23.10
2019-05-13T04:23:07.018Z,23.10
2019-05-13T04:25:39.757Z,23.10
2019-05-13T04:28:09.550Z,23.00
2019-05-13T04:30:43.353Z,23.00
2019-05-13T04:33:13.956Z,23.00
2019-05-13T04:35:43.977Z,23.00
2019-05-13T04:38:14.509Z,23.00
2019-05-13T04:40:45.335Z,23.00
2019-05-13T04:43:15.748Z,22.90
2019-05-13T04:45:46.145Z,22.90
2019-05-13T04:48:17.968Z,22.90
2019-05-13T04:50:48.735Z,22.90
2019-05-13T04:53:22.385Z,22.90
2019-05-13T04:55:52.869Z,22.90
2019-05-13T04:58:23.838Z,22.90
2019-05-13T05:01:18.010Z,22.80
2019-05-13T05:04:22.607Z,22.90
2019-05-13T05:06:58.231Z,22.80
2019-05-13T05:10:30.527Z,22.80
2019-05-13T05:12:57.880Z,22.80
2019-05-13T05:15:53.152Z,22.70
2019-05-13T05:18:37.809Z,22.70
2019-05-13T05:21:21.660Z,22.70
2019-05-13T05:24:02.905Z,22.70
2019-05-13T05:27:01.374Z,22.70
2019-05-13T05:29:42.267Z,22.70
2019-05-13T05:32:35.886Z,22.60
2019-05-13T05:35:07.468Z,22.60
2019-05-13T05:37:46.292Z,22.60
2019-05-13T05:40:30.954Z,22.60
2019-05-13T05:42:52.603Z,22.50
2019-05-13T05:45:23.535Z,22.50
2019-05-13T05:47:55.024Z,22.50
2019-05-13T05:50:25.664Z,22.50
2019-05-13T05:52:57.155Z,22.50
2019-05-13T05:55:31.794Z,22.50
2019-05-13T05:58:04.014Z,22.50
2019-05-13T06:00:36.409Z,22.40
2019-05-13T06:03:06.971Z,22.40
2019-05-13T06:05:37.972Z,22.40
2019-05-13T06:08:08.656Z,22.40
2019-05-13T06:10:49.069Z,22.40
2019-05-13T06:13:12.258Z,22.40
2019-05-13T06:15:43.011Z,22.40
2019-05-13T06:18:13.432Z,22.30
2019-05-13T06:20:44.045Z,22.30
2019-05-13T06:23:17.799Z,22.30
2019-05-13T06:25:48.274Z,22.30
2019-05-13T06:28:18.777Z,22.30
2019-05-13T06:30:51.825Z,22.20
2019-05-13T06:33:21.390Z,22.20
2019-05-13T06:35:52.240Z,22.20
2019-05-13T06:38:22.904Z,22.20
2019-05-13T06:41:03.233Z,22.20
2019-05-13T06:43:25.243Z,22.20
2019-05-13T06:45:55.712Z,22.20
2019-05-13T06:48:26.234Z,22.10
2019-05-13T06:50:56.647Z,22.10
2019-05-13T06:53:27.094Z,22.10
2019-05-13T06:55:57.915Z,22.10
2019-05-13T06:58:28.335Z,22.10
2019-05-13T07:00:58.889Z,22.00
2019-05-13T07:03:32.072Z,22.00
2019-05-13T07:06:01.796Z,22.00
2019-05-13T07:08:32.455Z,22.00
2019-05-13T07:11:17.093Z,22.00
2019-05-13T07:13:35.248Z,22.00
2019-05-13T07:16:05.685Z,22.00
2019-05-13T07:18:36.174Z,21.90
2019-05-13T07:21:06.676Z,21.90
2019-05-13T07:23:37.088Z,21.90
2019-05-13T07:26:07.488Z,21.90
2019-05-13T07:28:38.324Z,21.90
2019-05-13T07:31:08.757Z,21.90
2019-05-13T07:33:39.168Z,21.80
2019-05-13T07:36:12.440Z,21.80
2019-05-13T07:38:41.846Z,21.80
2019-05-13T07:41:12.233Z,21.80
2019-05-13T07:43:42.787Z,21.80
2019-05-13T07:46:13.488Z,21.80
2019-05-13T07:48:43.887Z,21.80
2019-05-13T07:51:14.376Z,21.70
2019-05-13T07:53:45.058Z,21.70
2019-05-13T07:56:15.458Z,21.70
2019-05-13T07:58:45.923Z,21.70
2019-05-13T08:01:16.340Z,21.70
2019-05-13T08:03:47.094Z,21.70
2019-05-13T08:06:17.504Z,21.60
2019-05-13T08:08:47.967Z,21.60
2019-05-13T08:11:18.375Z,21.60
2019-05-13T08:13:51.553Z,21.60
2019-05-13T08:16:22.269Z,21.60
2019-05-13T08:18:52.680Z,21.60
2019-05-13T08:21:23.108Z,21.60
2019-05-13T08:23:53.615Z,21.50
2019-05-13T08:26:24.289Z,21.50
2019-05-13T08:29:01.642Z,21.50
2019-05-13T08:31:26.583Z,21.50
2019-05-13T08:33:57.003Z,21.50
2019-05-13T08:36:27.437Z,21.50
2019-05-13T08:38:57.846Z,21.40
2019-05-13T08:41:28.364Z,21.40
2019-05-13T08:44:01.794Z,21.40
2019-05-13T08:46:32.416Z,21.40
2019-05-13T08:49:03.918Z,21.40
2019-05-13T08:51:34.931Z,21.30
2019-05-13T08:54:05.482Z,21.40
2019-05-13T08:56:35.931Z,21.30
2019-05-13T08:59:06.419Z,21.30
2019-05-13T09:01:36.827Z,21.30
2019-05-13T09:04:07.616Z,21.30
2019-05-13T09:06:38.314Z,21.30
2019-05-13T09:09:11.488Z,21.20
2019-05-13T09:11:42.409Z,21.20
2019-05-13T09:14:13.548Z,21.20
2019-05-13T09:16:44.269Z,21.20
2019-05-13T09:19:16.236Z,21.20
2019-05-13T09:21:47.166Z,21.20
2019-05-13T09:24:24.631Z,21.20
2019-05-13T09:26:49.411Z,21.20
2019-05-13T09:29:22.395Z,21.10
2019-05-13T09:31:52.081Z,21.10
2019-05-13T09:34:22.675Z,21.10
2019-05-13T09:36:53.467Z,21.10
2019-05-13T09:39:24.431Z,21.10
2019-05-13T09:41:54.888Z,21.00
2019-05-13T09:44:25.519Z,21.00
2019-05-13T09:46:55.966Z,21.00
2019-05-13T09:49:26.392Z,21.00
2019-05-13T09:51:56.892Z,21.00
2019-05-13T09:54:27.352Z,21.00
2019-05-13T09:56:58.204Z,20.90
2019-05-13T09:59:28.642Z,21.00
2019-05-13T10:01:59.041Z,20.90
2019-05-13T10:04:31.396Z,20.90
2019-05-13T10:07:02.474Z,20.90
2019-05-13T10:09:33.245Z,20.90
2019-05-13T10:12:04.141Z,20.90
2019-05-13T10:14:34.819Z,20.80
2019-05-13T10:17:06.622Z,20.80
2019-05-13T10:19:38.530Z,20.80
2019-05-13T10:22:09.063Z,20.80
2019-05-13T10:24:41.687Z,20.80
2019-05-13T10:27:12.356Z,20.80
2019-05-13T10:29:43.172Z,20.70
2019-05-13T10:32:13.877Z,20.70
2019-05-13T10:34:44.972Z,20.70
2019-05-13T10:37:15.486Z,20.70
2019-05-13T10:39:46.629Z,20.70
2019-05-13T10:42:17.024Z,20.70
2019-05-13T10:44:47.608Z,20.70
2019-05-13T10:47:18.128Z,20.60
2019-05-13T10:49:48.519Z,20.70
2019-05-13T10:52:18.923Z,20.60
2019-05-13T10:54:49.338Z,20.60
2019-05-13T10:57:19.754Z,20.60
2019-05-13T10:59:52.456Z,20.60
2019-05-13T11:02:22.513Z,20.50
2019-05-13T11:04:52.918Z,20.50
2019-05-13T11:07:23.435Z,20.50
2019-05-13T11:09:53.862Z,20.50
2019-05-13T11:12:28.453Z,20.50
2019-05-13T11:14:56.364Z,20.50
2019-05-13T11:17:30.890Z,20.50
2019-05-13T11:19:59.093Z,20.40
2019-05-13T11:22:32.129Z,20.40
2019-05-13T11:25:02.621Z,20.40
2019-05-13T11:27:33.334Z,20.40
2019-05-13T11:30:06.350Z,20.40
2019-05-13T11:32:36.136Z,20.30
2019-05-13T11:35:08.164Z,20.40
2019-05-13T11:37:38.574Z,20.40
2019-05-13T11:40:11.524Z,20.30
2019-05-13T11:42:42.176Z,20.30
2019-05-13T11:45:13.061Z,20.30
2019-05-13T11:47:43.555Z,20.30
2019-05-13T11:50:14.761Z,20.20
2019-05-13T11:52:45.634Z,20.20
2019-05-13T11:55:16.250Z,20.20
2019-05-13T11:57:46.660Z,20.20
2019-05-13T12:00:18.434Z,20.20
2019-05-13T12:02:52.019Z,20.20
2019-05-13T12:05:22.603Z,20.20
2019-05-13T12:07:53.622Z,20.20
2019-05-13T12:10:24.143Z,20.10
2019-05-13T12:12:54.671Z,20.10
2019-05-13T12:15:33.674Z,20.10
2019-05-13T12:17:57.108Z,20.10
2019-05-13T12:20:27.854Z,20.10
2019-05-13T12:22:58.258Z,20.00
2019-05-13T12:25:28.674Z,20.00
2019-05-13T12:27:59.119Z,20.00
2019-05-13T12:30:33.005Z,20.00
2019-05-13T12:33:03.149Z,20.00
2019-05-13T12:35:33.332Z,20.00
2019-05-13T12:38:03.749Z,20.00
2019-05-13T12:40:34.423Z,19.90
2019-05-13T12:43:05.192Z,19.90
2019-05-13T12:45:35.688Z,19.90
2019-05-13T12:48:06.420Z,19.90
2019-05-13T12:50:36.894Z,19.90
2019-05-13T12:53:07.268Z,19.90
2019-05-13T12:55:37.683Z,19.80
2019-05-13T12:58:08.147Z,19.80
2019-05-13T13:00:38.853Z,19.80
2019-05-13T13:03:09.325Z,19.80
2019-05-13T13:05:42.886Z,19.80
2019-05-13T13:08:24.444Z,19.70
2019-05-13T13:10:43.640Z,19.70
2019-05-13T13:13:14.067Z,19.70
2019-05-13T13:15:48.525Z,19.70
2019-05-13T13:18:17.081Z,19.70
2019-05-13T13:20:56.574Z,19.70
2019-05-13T13:23:23.154Z,19.70
2019-05-13T13:25:56.156Z,19.60
2019-05-13T13:28:24.356Z,19.60
2019-05-13T13:30:54.852Z,19.60
2019-05-13T13:33:25.270Z,19.60
2019-05-13T13:35:59.983Z,19.60
2019-05-13T13:38:27.525Z,19.60
2019-05-13T13:40:57.947Z,19.60
2019-05-13T13:43:28.436Z,19.50
2019-05-13T13:46:32.426Z,19.50
2019-05-13T13:48:33.239Z,19.50
2019-05-13T13:51:04.802Z,19.50
2019-05-13T13:53:35.101Z,19.50
2019-05-13T13:56:05.522Z,19.50
2019-05-13T13:58:36.571Z,19.50
2019-05-13T14:01:12.507Z,19.50
2019-05-13T14:03:38.859Z,19.40
2019-05-13T14:06:12.355Z,19.40
2019-05-13T14:08:41.598Z,19.40
2019-05-13T14:11:12.132Z,19.40
2019-05-13T14:13:42.667Z,19.40
2019-05-13T14:16:24.525Z,19.40
2019-05-13T14:18:45.530Z,19.40
2019-05-13T14:21:15.920Z,19.40
2019-05-13T14:23:46.343Z,19.30
2019-05-13T14:26:17.464Z,19.40
2019-05-13T14:28:47.892Z,19.40
2019-05-13T14:31:18.330Z,19.30
2019-05-13T14:33:48.725Z,19.30
2019-05-13T14:36:22.658Z,19.30
2019-05-13T14:38:52.781Z,19.30
2019-05-13T14:41:24.163Z,19.30
2019-05-13T14:43:54.606Z,19.30
2019-05-13T14:46:43.116Z,19.30
2019-05-13T14:48:57.772Z,19.30
2019-05-13T14:51:28.215Z,19.30
2019-05-13T14:53:58.619Z,19.30
2019-05-13T14:56:32.149Z,19.30
2019-05-13T14:59:02.754Z,19.30
2019-05-13T15:01:33.452Z,19.30
2019-05-13T15:04:06.920Z,19.30
2019-05-13T15:06:37.330Z,19.30
2019-05-13T15:09:08.616Z,19.30
2019-05-13T15:11:41.255Z,19.30
2019-05-13T15:14:11.633Z,19.40
2019-05-13T15:16:42.586Z,19.40
2019-05-13T15:19:13.095Z,19.40
2019-05-13T15:21:43.803Z,19.40
2019-05-13T15:24:14.399Z,19.50
2019-05-13T15:26:45.181Z,19.50
2019-05-13T15:29:15.655Z,19.50
2019-05-13T15:31:46.039Z,19.50
2019-05-13T15:34:16.576Z,19.60
2019-05-13T15:36:47.110Z,19.60
2019-05-13T15:39:17.528Z,19.70
2019-05-13T15:41:48.261Z,19.70
2019-05-13T15:44:18.761Z,19.70
2019-05-13T15:46:49.199Z,19.70
2019-05-13T15:49:21.963Z,19.80
2019-05-13T15:51:51.588Z,19.80
2019-05-13T15:54:22.200Z,19.90
2019-05-13T15:56:53.074Z,19.90
2019-05-13T15:59:23.746Z,20.00
2019-05-13T16:01:54.444Z,20.00
2019-05-13T16:04:25.061Z,20.00
2019-05-13T16:06:55.527Z,20.00
2019-05-13T16:09:26.979Z,20.10
2019-05-13T16:11:57.421Z,20.10
2019-05-13T16:14:27.816Z,20.10
2019-05-13T16:16:58.208Z,20.20
2019-05-13T16:19:32.394Z,20.20
2019-05-13T16:22:01.765Z,20.30
2019-05-13T16:24:32.491Z,20.30
2019-05-13T16:27:04.591Z,20.40
2019-05-13T16:29:35.104Z,20.40
2019-05-13T16:32:06.457Z,20.40
2019-05-13T16:34:37.819Z,20.40
2019-05-13T16:37:08.267Z,20.50
2019-05-13T16:39:41.487Z,20.50
2019-05-13T16:42:11.915Z,20.50
2019-05-13T16:44:43.112Z,20.60
2019-05-13T16:47:13.687Z,20.60
2019-05-13T16:49:44.168Z,20.60
2019-05-13T16:52:14.631Z,20.70
2019-05-13T16:54:45.036Z,20.70
2019-05-13T16:57:15.622Z,20.70
2019-05-13T16:59:46.033Z,20.80
2019-05-13T17:02:16.560Z,20.80
2019-05-13T17:04:47.104Z,20.80
2019-05-13T17:07:17.743Z,20.90
2019-05-13T17:09:48.260Z,20.90
2019-05-13T17:12:21.115Z,20.90
2019-05-13T17:14:52.254Z,21.00
2019-05-13T17:17:22.427Z,21.00
2019-05-13T17:19:53.974Z,21.00
2019-05-13T17:22:24.630Z,21.10
2019-05-13T17:24:56.015Z,21.10
2019-05-13T17:27:26.434Z,21.10
2019-05-13T17:29:56.863Z,21.10
2019-05-13T17:32:27.240Z,21.20
2019-05-13T17:34:57.740Z,21.20
2019-05-13T17:37:28.221Z,21.20
2019-05-13T17:40:01.166Z,21.20
2019-05-13T17:42:31.993Z,21.30
2019-05-13T17:45:02.543Z,21.30
2019-05-13T17:47:33.066Z,21.30
2019-05-13T17:50:03.896Z,21.30
2019-05-13T17:52:34.376Z,21.30
2019-05-13T17:55:05.996Z,21.40
2019-05-13T17:57:36.432Z,21.40
2019-05-13T18:00:10.203Z,21.40
2019-05-13T18:02:42.048Z,21.50
2019-05-13T18:05:12.944Z,21.50
2019-05-13T18:07:43.431Z,21.50
2019-05-13T18:10:14.584Z,21.50
2019-05-13T18:12:45.534Z,21.60
2019-05-13T18:15:16.228Z,21.70
2019-05-13T18:17:46.801Z,21.80
2019-05-13T18:20:18.308Z,21.90
2019-05-13T18:22:48.699Z,22.00
2019-05-13T18:25:22.301Z,22.10
2019-05-13T18:27:53.003Z,22.10
2019-05-13T18:30:23.384Z,22.20
2019-05-13T18:32:53.780Z,22.30
2019-05-13T18:35:24.216Z,22.30
2019-05-13T18:37:54.703Z,22.40
2019-05-13T18:40:25.060Z,22.40
2019-05-13T18:42:55.495Z,22.40
2019-05-13T18:45:25.915Z,22.50
2019-05-13T18:47:59.180Z,22.50
2019-05-13T18:50:31.371Z,22.60
2019-05-13T18:53:01.902Z,22.60
2019-05-13T18:55:32.435Z,22.70
2019-05-13T18:58:02.896Z,22.70
2019-05-13T19:00:33.408Z,22.70
2019-05-13T19:03:03.808Z,22.80
2019-05-13T19:05:34.430Z,22.80
2019-05-13T19:08:04.880Z,22.80
2019-05-13T19:10:35.844Z,22.90
2019-05-13T19:13:06.437Z,23.00
2019-05-13T19:15:36.891Z,23.00
2019-05-13T19:18:08.172Z,23.00
2019-05-13T19:20:38.606Z,23.00
2019-05-13T19:23:09.092Z,23.10
2019-05-13T19:25:42.700Z,23.10
2019-05-13T19:28:13.588Z,23.20
2019-05-13T19:30:44.259Z,23.20
2019-05-13T19:33:14.779Z,23.20
2019-05-13T19:35:45.254Z,23.30
2019-05-13T19:38:16.358Z,23.30
2019-05-13T19:40:46.739Z,23.30
2019-05-13T19:43:17.167Z,23.40
2019-05-13T19:45:47.592Z,23.40
2019-05-13T19:48:21.642Z,23.40
2019-05-13T19:50:52.107Z,23.50
2019-05-13T19:53:22.712Z,23.50
2019-05-13T19:55:53.154Z,23.50
2019-05-13T19:58:23.586Z,23.50
2019-05-13T20:00:54.095Z,23.60
2019-05-13T20:03:25.708Z,23.60
2019-05-13T20:05:56.242Z,23.60
2019-05-13T20:08:26.623Z,23.70
2019-05-13T20:10:57.034Z,23.70
2019-05-13T20:13:27.474Z,23.70
2019-05-13T20:15:57.876Z,23.80
2019-05-13T20:18:28.283Z,23.80
2019-05-13T20:21:01.049Z,23.80
2019-05-13T20:23:32.094Z,23.80
2019-05-13T20:26:02.915Z,23.80
2019-05-13T20:28:33.319Z,23.90
2019-05-13T20:31:04.002Z,23.90
2019-05-13T20:33:39.602Z,23.90
2019-05-13T20:36:07.522Z,24.00
2019-05-13T20:38:37.893Z,24.00
2019-05-13T20:41:08.395Z,24.00
2019-05-13T20:43:38.873Z,24.10
2019-05-13T20:46:11.229Z,24.10
2019-05-13T20:48:41.296Z,24.10
2019-05-13T20:51:11.765Z,24.20
2019-05-13T20:53:42.151Z,24.20
2019-05-13T20:56:12.675Z,24.20
2019-05-13T20:58:43.148Z,24.20
2019-05-13T21:01:13.531Z,24.30
2019-05-13T21:03:44.056Z,24.30
2019-05-13T21:06:14.877Z,24.30
2019-05-13T21:08:45.253Z,24.30
2019-05-13T21:11:15.824Z,24.30
2019-05-13T21:13:47.015Z,24.40
2019-05-13T21:16:17.385Z,24.40
2019-05-13T21:18:47.780Z,24.40
2019-05-13T21:21:18.261Z,24.40
2019-05-13T21:23:48.644Z,24.40
2019-05-13T21:26:19.158Z,24.40
2019-05-13T21:28:52.034Z,24.50
2019-05-13T21:31:21.729Z,24.50
2019-05-13T21:33:52.265Z,24.50
2019-05-13T21:36:23.636Z,24.50
2019-05-13T21:38:54.112Z,24.50
2019-05-13T21:41:24.736Z,24.50
2019-05-13T21:43:55.242Z,24.60
2019-05-13T21:46:25.593Z,24.60
2019-05-13T21:48:56.209Z,24.60
2019-05-13T21:51:26.843Z,24.60
2019-05-13T21:54:01.053Z,24.60
2019-05-13T21:56:31.917Z,24.60
2019-05-13T21:59:02.516Z,24.60
2019-05-13T22:01:33.458Z,24.70
2019-05-13T22:04:04.421Z,24.70
2019-05-13T22:06:34.906Z,24.70
2019-05-13T22:09:07.892Z,24.70
2019-05-13T22:11:38.446Z,24.70
2019-05-13T22:14:11.150Z,24.70
2019-05-13T22:16:41.258Z,24.70
2019-05-13T22:19:12.212Z,24.80
2019-05-13T22:21:43.114Z,24.80
2019-05-13T22:24:13.496Z,24.80
2019-05-13T22:26:43.934Z,24.80
2019-05-13T22:29:14.371Z,24.80
2019-05-13T22:31:45.196Z,24.80
2019-05-13T22:34:15.572Z,24.80
2019-05-13T22:36:46.264Z,24.80
2019-05-13T22:39:16.916Z,24.80
2019-05-13T22:41:47.292Z,24.80
2019-05-13T22:44:18.079Z,24.80
2019-05-13T22:46:48.496Z,24.80
2019-05-13T22:49:18.878Z,24.90
2019-05-13T22:51:51.507Z,24.80
2019-05-13T22:54:21.571Z,24.30
2019-05-13T22:56:52.312Z,23.90
2019-05-13T22:59:22.732Z,23.70
2019-05-13T23:01:53.850Z,24.00
2019-05-13T23:04:24.577Z,24.10
2019-05-13T23:06:55.364Z,24.20
2019-05-13T23:09:26.589Z,24.30
2019-05-13T23:11:57.633Z,24.40
2019-05-13T23:14:28.094Z,24.50
2019-05-13T23:16:58.632Z,24.50
2019-05-13T23:19:29.595Z,24.60
2019-05-13T23:22:01.642Z,24.60
2019-05-13T23:24:32.299Z,24.60
2019-05-13T23:27:03.282Z,24.60
2019-05-13T23:29:33.881Z,24.60
2019-05-13T23:32:04.354Z,24.60
2019-05-13T23:34:35.187Z,24.70
2019-05-13T23:37:05.906Z,24.70
2019-05-13T23:39:36.593Z,24.70
2019-05-13T23:42:07.259Z,24.70
2019-05-13T23:44:38.089Z,24.70
2019-05-13T23:47:11.437Z,24.70
2019-05-13T23:49:42.382Z,24.70
2019-05-13T23:52:13.322Z,24.70
2019-05-13T23:54:43.779Z,24.70
2019-05-13T23:57:14.607Z,24.80
2019-05-13T23:59:45.167Z,24.70
